createdAt,value
2023-03-11T00:00:55.159Z,16.20
2023-03-11T00:01:55.199Z,16.20
2023-03-11T00:02:55.151Z,16.17
2023-03-11T00:03:55.136Z,16.17
2023-03-11T00:04:55.160Z,16.17
2023-03-11T00:05:55.088Z,16.20
2023-03-11T00:06:55.113Z,16.17
2023-03-11T00:07:55.070Z,16.17
2023-03-11T00:08:55.056Z,16.17
2023-03-11T00:09:55.043Z,16.20
2023-03-11T00:10:55.083Z,16.17
2023-03-11T00:11:55.023Z,16.17
2023-03-11T00:12:55.020Z,16.20
2023-03-11T00:13:55.007Z,16.17
2023-03-11T00:14:54.994Z,16.17
2023-03-11T00:15:55.002Z,16.17
2023-03-11T00:16:55.027Z,16.20
2023-03-11T00:17:54.959Z,16.20
2023-03-11T00:18:54.968Z,16.17
2023-03-11T00:19:54.937Z,16.15
2023-03-11T00:20:54.934Z,16.15
2023-03-11T00:21:54.921Z,16.17
2023-03-11T00:22:54.920Z,16.17
2023-03-11T00:23:54.941Z,16.17
2023-03-11T00:24:54.883Z,16.17
2023-03-11T00:25:54.914Z,16.15
2023-03-11T00:26:54.913Z,16.15
2023-03-11T00:27:54.852Z,16.17
2023-03-11T00:28:54.840Z,16.15
2023-03-11T00:29:54.857Z,16.15
2023-03-11T00:30:54.890Z,16.17
2023-03-11T00:31:54.809Z,16.15
2023-03-11T00:32:54.796Z,16.17
2023-03-11T00:33:54.788Z,16.15
2023-03-11T00:34:54.816Z,16.15
2023-03-11T00:35:54.781Z,16.17
2023-03-11T00:36:54.761Z,16.15
2023-03-11T00:37:54.747Z,16.15
2023-03-11T00:38:54.761Z,16.15
2023-03-11T00:39:54.720Z,16.15
2023-03-11T00:40:54.732Z,16.15
2023-03-11T00:41:54.708Z,16.15
2023-03-11T00:42:54.728Z,16.15
2023-03-11T00:43:54.679Z,16.17
2023-03-11T00:44:54.680Z,16.17
2023-03-11T00:45:54.822Z,16.15
2023-03-11T00:46:54.651Z,16.15
2023-03-11T00:47:54.644Z,16.14
2023-03-11T00:48:54.624Z,16.15
2023-03-11T00:49:54.615Z,16.15
2023-03-11T00:50:54.628Z,16.15
2023-03-11T00:51:54.610Z,16.15
2023-03-11T00:52:54.587Z,16.15
2023-03-11T00:53:54.580Z,16.15
2023-03-11T00:54:54.561Z,16.14
2023-03-11T00:55:54.547Z,16.15
2023-03-11T00:56:54.560Z,16.15
2023-03-11T00:57:54.530Z,16.15
2023-03-11T00:58:54.545Z,16.15
2023-03-11T00:59:54.508Z,16.15
2023-03-11T01:00:54.495Z,16.14
2023-03-11T01:01:54.511Z,16.15
2023-03-11T01:02:54.477Z,16.15
2023-03-11T01:03:54.464Z,16.15
2023-03-11T01:04:54.526Z,16.15
2023-03-11T01:05:54.475Z,16.14
2023-03-11T01:06:54.432Z,16.15
2023-03-11T01:07:54.440Z,16.15
2023-03-11T01:08:54.410Z,16.15
2023-03-11T01:09:54.401Z,16.14
2023-03-11T01:10:54.409Z,16.14
2023-03-11T01:11:54.375Z,16.15
2023-03-11T01:12:54.367Z,16.14
2023-03-11T01:13:54.374Z,16.14
2023-03-11T01:14:54.370Z,16.14
2023-03-11T01:15:54.447Z,16.14
2023-03-11T01:16:54.326Z,16.14
2023-03-11T01:17:54.312Z,16.15
2023-03-11T01:18:54.324Z,16.14
2023-03-11T01:19:54.293Z,16.14
2023-03-11T01:20:54.284Z,16.14
2023-03-11T01:21:54.277Z,16.14
2023-03-11T01:22:54.260Z,16.14
2023-03-11T01:23:54.274Z,16.14
2023-03-11T01:24:54.237Z,16.14
2023-03-11T01:25:54.235Z,16.14
2023-03-11T01:26:54.213Z,16.15
2023-03-11T01:27:54.268Z,16.14
2023-03-11T01:28:54.224Z,16.14
2023-03-11T01:29:54.183Z,16.14
2023-03-11T01:30:54.248Z,16.14
2023-03-11T01:31:54.162Z,16.14
2023-03-11T01:32:54.149Z,16.14
2023-03-11T01:33:54.162Z,16.14
2023-03-11T01:34:54.128Z,16.14
2023-03-11T01:35:54.159Z,16.15
2023-03-11T01:36:54.110Z,16.15
2023-03-11T01:37:54.118Z,16.15
2023-03-11T01:38:54.089Z,16.12
2023-03-11T01:39:54.078Z,16.14
2023-03-11T01:40:54.065Z,16.14
2023-03-11T01:41:54.096Z,16.12
2023-03-11T01:42:54.049Z,16.14
2023-03-11T01:43:54.034Z,16.14
2023-03-11T01:44:54.018Z,16.14
2023-03-11T01:45:54.019Z,16.12
2023-03-11T01:46:54.218Z,16.12
2023-03-11T01:47:54.008Z,16.14
2023-03-11T01:48:53.979Z,16.14
2023-03-11T01:49:53.985Z,16.14
2023-03-11T01:50:53.959Z,16.14
2023-03-11T01:51:53.948Z,16.12
2023-03-11T01:52:53.936Z,16.14
2023-03-11T01:53:53.922Z,16.14
2023-03-11T01:54:53.937Z,16.14
2023-03-11T01:55:53.903Z,16.14
2023-03-11T01:56:53.892Z,16.15
2023-03-11T01:57:53.899Z,16.14
2023-03-11T01:58:53.869Z,16.12
2023-03-11T01:59:53.879Z,16.14
2023-03-11T02:00:53.850Z,16.14
2023-03-11T02:01:53.929Z,16.14
2023-03-11T02:02:53.994Z,16.14
2023-03-11T02:03:53.812Z,16.14
2023-03-11T02:04:53.814Z,16.14
2023-03-11T02:05:53.801Z,16.12
2023-03-11T02:06:54.218Z,16.12
2023-03-11T02:07:53.806Z,16.12
2023-03-11T02:08:53.757Z,16.11
2023-03-11T02:09:53.746Z,16.12
2023-03-11T02:10:53.755Z,16.14
2023-03-11T02:11:53.726Z,16.14
2023-03-11T02:12:53.758Z,16.14
2023-03-11T02:13:53.708Z,16.12
2023-03-11T02:14:53.700Z,16.12
2023-03-11T02:15:53.761Z,16.14
2023-03-11T02:16:53.700Z,16.12
2023-03-11T02:17:53.690Z,16.14
2023-03-11T02:18:53.707Z,16.12
2023-03-11T02:19:53.704Z,16.12
2023-03-11T02:20:53.717Z,16.14
2023-03-11T02:21:53.671Z,16.14
2023-03-11T02:22:53.650Z,16.12
2023-03-11T02:23:53.680Z,16.12
2023-03-11T02:24:53.649Z,16.14
2023-03-11T02:25:53.590Z,16.12
2023-03-11T02:26:53.683Z,16.12
2023-03-11T02:27:53.564Z,16.11
2023-03-11T02:28:53.552Z,16.12
2023-03-11T02:29:53.562Z,16.14
2023-03-11T02:30:53.550Z,16.14
2023-03-11T02:31:53.629Z,16.12
2023-03-11T02:32:53.621Z,16.12
2023-03-11T02:33:53.508Z,16.11
2023-03-11T02:34:53.533Z,16.12
2023-03-11T02:35:53.531Z,16.12
2023-03-11T02:36:53.468Z,16.12
2023-03-11T02:37:53.464Z,16.12
2023-03-11T02:38:53.468Z,16.12
2023-03-11T02:39:53.451Z,16.11
2023-03-11T02:40:53.447Z,16.11
2023-03-11T02:41:53.438Z,16.12
2023-03-11T02:42:53.408Z,16.09
2023-03-11T02:43:53.396Z,16.11
2023-03-11T02:44:53.385Z,16.11
2023-03-11T02:45:53.403Z,16.12
2023-03-11T02:46:53.486Z,16.12
2023-03-11T02:47:53.359Z,16.11
2023-03-11T02:48:53.359Z,16.11
2023-03-11T02:49:53.352Z,16.12
2023-03-11T02:50:53.368Z,16.12
2023-03-11T02:51:53.304Z,16.12
2023-03-11T02:52:53.299Z,16.11
2023-03-11T02:53:53.281Z,16.12
2023-03-11T02:54:53.300Z,16.11
2023-03-11T02:55:53.284Z,16.11
2023-03-11T02:56:53.280Z,16.11
2023-03-11T02:57:53.240Z,16.12
2023-03-11T02:58:53.247Z,16.12
2023-03-11T02:59:53.216Z,16.11
2023-03-11T03:00:53.250Z,16.09
2023-03-11T03:01:53.220Z,16.14
2023-03-11T03:02:53.190Z,16.09
2023-03-11T03:03:53.267Z,16.11
2023-03-11T03:04:53.185Z,16.12
2023-03-11T03:05:53.150Z,16.11
2023-03-11T03:06:53.164Z,16.12
2023-03-11T03:07:53.130Z,16.11
2023-03-11T03:08:53.125Z,16.11
2023-03-11T03:09:53.149Z,16.12
2023-03-11T03:10:53.122Z,16.12
2023-03-11T03:11:53.088Z,16.11
2023-03-11T03:12:53.081Z,16.12
2023-03-11T03:13:53.084Z,16.11
2023-03-11T03:14:53.087Z,16.11
2023-03-11T03:15:53.080Z,16.11
2023-03-11T03:16:53.227Z,16.12
2023-03-11T03:17:53.192Z,16.11
2023-03-11T03:18:53.018Z,16.11
2023-03-11T03:19:53.034Z,16.11
2023-03-11T03:20:52.995Z,16.11
2023-03-11T03:21:52.992Z,16.11
2023-03-11T03:22:53.012Z,16.11
2023-03-11T03:23:52.964Z,16.11
2023-03-11T03:24:52.971Z,16.11
2023-03-11T03:25:52.969Z,16.11
2023-03-11T03:26:52.950Z,16.11
2023-03-11T03:27:52.927Z,16.11
2023-03-11T03:28:52.946Z,16.09
2023-03-11T03:29:52.898Z,16.09
2023-03-11T03:30:52.911Z,16.09
2023-03-11T03:31:52.922Z,16.11
2023-03-11T03:32:52.899Z,16.09
2023-03-11T03:33:52.864Z,16.09
2023-03-11T03:34:52.847Z,16.09
2023-03-11T03:35:52.884Z,16.11
2023-03-11T03:36:52.901Z,16.11
2023-03-11T03:37:52.816Z,16.11
2023-03-11T03:38:52.831Z,16.09
2023-03-11T03:39:52.791Z,16.09
2023-03-11T03:40:52.806Z,16.11
2023-03-11T03:41:52.770Z,16.09
2023-03-11T03:42:52.763Z,16.11
2023-03-11T03:43:52.751Z,16.11
2023-03-11T03:44:52.743Z,16.09
2023-03-11T03:45:52.820Z,16.09
2023-03-11T03:46:52.721Z,16.09
2023-03-11T03:47:52.705Z,16.11
2023-03-11T03:48:52.697Z,16.09
2023-03-11T03:49:52.688Z,16.11
2023-03-11T03:50:52.674Z,16.11
2023-03-11T03:51:52.692Z,16.11
2023-03-11T03:52:52.657Z,16.09
2023-03-11T03:53:52.785Z,16.09
2023-03-11T03:54:52.662Z,16.11
2023-03-11T03:55:52.621Z,16.09
2023-03-11T03:56:52.657Z,16.09
2023-03-11T03:57:52.634Z,16.09
2023-03-11T03:58:52.596Z,16.09
2023-03-11T03:59:52.584Z,16.09
2023-03-11T04:00:52.571Z,16.09
2023-03-11T04:01:52.643Z,16.09
2023-03-11T04:02:52.550Z,16.09
2023-03-11T04:03:53.268Z,16.09
2023-03-11T04:04:52.531Z,16.08
2023-03-11T04:05:52.536Z,16.09
2023-03-11T04:06:52.507Z,16.08
2023-03-11T04:07:52.497Z,16.09
2023-03-11T04:08:52.529Z,16.09
2023-03-11T04:09:52.476Z,16.07
2023-03-11T04:10:52.498Z,16.09
2023-03-11T04:11:52.489Z,16.08
2023-03-11T04:12:52.443Z,16.09
2023-03-11T04:13:52.436Z,16.08
2023-03-11T04:14:52.421Z,16.09
2023-03-11T04:15:52.417Z,16.08
2023-03-11T04:16:52.487Z,16.09
2023-03-11T04:17:52.478Z,16.09
2023-03-11T04:18:52.377Z,16.09
2023-03-11T04:19:52.374Z,16.09
2023-03-11T04:20:52.381Z,16.09
2023-03-11T04:21:52.347Z,16.08
2023-03-11T04:22:52.555Z,16.08
2023-03-11T04:23:52.324Z,16.08
2023-03-11T04:24:52.317Z,16.08
2023-03-11T04:25:52.302Z,16.09
2023-03-11T04:26:52.318Z,16.08
2023-03-11T04:27:52.656Z,16.09
2023-03-11T04:28:52.271Z,16.08
2023-03-11T04:29:52.259Z,16.08
2023-03-11T04:30:52.332Z,16.09
2023-03-11T04:31:52.232Z,16.09
2023-03-11T04:32:52.330Z,16.09
2023-03-11T04:33:52.211Z,16.09
2023-03-11T04:34:52.225Z,16.08
2023-03-11T04:35:52.219Z,16.09
2023-03-11T04:36:52.193Z,16.08
2023-03-11T04:37:52.165Z,16.08
2023-03-11T04:38:52.250Z,16.08
2023-03-11T04:39:52.151Z,16.08
2023-03-11T04:40:52.144Z,16.08
2023-03-11T04:41:52.123Z,16.08
2023-03-11T04:42:52.137Z,16.08
2023-03-11T04:43:52.124Z,16.08
2023-03-11T04:44:52.095Z,16.08
2023-03-11T04:45:52.110Z,16.08
2023-03-11T04:46:52.079Z,16.09
2023-03-11T04:47:52.060Z,16.08
2023-03-11T04:48:52.069Z,16.08
2023-03-11T04:49:52.038Z,16.09
2023-03-11T04:50:52.025Z,16.08
2023-03-11T04:51:52.044Z,16.08
2023-03-11T04:52:52.003Z,16.07
2023-03-11T04:53:52.019Z,16.08
2023-03-11T04:54:52.769Z,16.08
2023-03-11T04:55:51.972Z,16.08
2023-03-11T04:56:51.964Z,16.08
2023-03-11T04:57:51.971Z,16.08
2023-03-11T04:58:51.986Z,16.08
2023-03-11T04:59:51.931Z,16.08
2023-03-11T05:00:51.919Z,16.08
2023-03-11T05:01:52.060Z,16.07
2023-03-11T05:02:51.963Z,16.07
2023-03-11T05:03:54.491Z,16.08
2023-03-11T05:04:52.002Z,16.07
2023-03-11T05:05:53.808Z,16.08
2023-03-11T05:06:51.859Z,16.07
2023-03-11T05:07:51.847Z,16.09
2023-03-11T05:08:51.836Z,16.07
2023-03-11T05:09:51.821Z,16.07
2023-03-11T05:10:51.863Z,16.08
2023-03-11T05:11:52.357Z,16.08
2023-03-11T05:12:51.788Z,16.09
2023-03-11T05:13:51.778Z,16.08
2023-03-11T05:14:51.789Z,16.07
2023-03-11T05:15:51.852Z,16.07
2023-03-11T05:16:51.757Z,16.08
2023-03-11T05:17:51.746Z,16.09
2023-03-11T05:18:51.725Z,16.08
2023-03-11T05:19:51.717Z,16.08
2023-03-11T05:20:51.917Z,16.07
2023-03-11T05:21:51.698Z,16.07
2023-03-11T05:22:51.682Z,16.07
2023-03-11T05:23:51.671Z,16.07
2023-03-11T05:24:51.661Z,16.08
2023-03-11T05:25:52.174Z,16.07
2023-03-11T05:26:51.655Z,16.07
2023-03-11T05:27:52.591Z,16.05
2023-03-11T05:28:51.620Z,16.07
2023-03-11T05:29:51.608Z,16.07
2023-03-11T05:30:51.669Z,16.08
2023-03-11T05:31:51.585Z,16.08
2023-03-11T05:32:51.891Z,16.08
2023-03-11T05:33:51.565Z,16.07
2023-03-11T05:34:51.556Z,16.07
2023-03-11T05:35:51.624Z,16.07
2023-03-11T05:36:52.566Z,16.07
2023-03-11T05:37:51.524Z,16.08
2023-03-11T05:38:51.513Z,16.07
2023-03-11T05:39:51.506Z,16.07
2023-03-11T05:40:51.495Z,16.07
2023-03-11T05:41:51.717Z,16.07
2023-03-11T05:42:51.474Z,16.08
2023-03-11T05:43:51.461Z,16.07
2023-03-11T05:44:51.454Z,16.07
2023-03-11T05:45:51.447Z,16.07
2023-03-11T05:46:51.513Z,16.07
2023-03-11T05:47:51.922Z,16.07
2023-03-11T05:48:51.416Z,16.08
2023-03-11T05:49:51.406Z,16.05
2023-03-11T05:50:51.390Z,16.07
2023-03-11T05:51:51.388Z,16.08
2023-03-11T05:52:52.744Z,16.08
2023-03-11T05:53:51.358Z,16.07
2023-03-11T05:54:51.368Z,16.07
2023-03-11T05:55:51.338Z,16.07
2023-03-11T05:56:51.332Z,16.07
2023-03-11T05:57:52.408Z,16.04
2023-03-11T05:58:51.298Z,16.07
2023-03-11T05:59:52.705Z,16.07
2023-03-11T06:00:51.281Z,16.07
2023-03-11T06:01:51.267Z,16.05
2023-03-11T06:02:51.285Z,16.07
2023-03-11T06:03:51.477Z,16.08
2023-03-11T06:04:51.382Z,16.07
2023-03-11T06:05:51.232Z,16.07
2023-03-11T06:06:51.215Z,16.07
2023-03-11T06:07:51.230Z,16.07
2023-03-11T06:08:51.192Z,16.05
2023-03-11T06:09:51.213Z,16.07
2023-03-11T06:10:51.175Z,16.07
2023-03-11T06:11:51.157Z,16.07
2023-03-11T06:12:51.163Z,16.05
2023-03-11T06:13:51.690Z,16.07
2023-03-11T06:14:51.124Z,16.07
2023-03-11T06:15:51.181Z,16.05
2023-03-11T06:16:51.102Z,16.07
2023-03-11T06:17:51.099Z,16.05
2023-03-11T06:18:51.170Z,16.05
2023-03-11T06:19:51.074Z,16.05
2023-03-11T06:20:51.058Z,16.07
2023-03-11T06:21:51.051Z,16.05
2023-03-11T06:22:51.043Z,16.07
2023-03-11T06:23:51.074Z,16.05
2023-03-11T06:24:51.018Z,16.07
2023-03-11T06:25:51.942Z,16.05
2023-03-11T06:26:51.005Z,16.05
2023-03-11T06:27:50.984Z,16.05
2023-03-11T06:28:50.981Z,16.05
2023-03-11T06:29:50.962Z,16.05
2023-03-11T06:30:50.955Z,16.07
2023-03-11T06:31:51.181Z,16.07
2023-03-11T06:32:51.507Z,16.07
2023-03-11T06:33:50.920Z,16.07
2023-03-11T06:34:51.774Z,16.07
2023-03-11T06:35:51.009Z,16.05
2023-03-11T06:36:50.900Z,16.07
2023-03-11T06:37:50.880Z,16.05
2023-03-11T06:38:50.866Z,16.05
2023-03-11T06:39:50.866Z,16.07
2023-03-11T06:40:50.883Z,16.07
2023-03-11T06:41:50.860Z,16.07
2023-03-11T06:42:50.826Z,16.07
2023-03-11T06:43:50.820Z,16.07
2023-03-11T06:44:50.813Z,16.07
2023-03-11T06:45:50.849Z,16.05
2023-03-11T06:46:50.785Z,16.05
2023-03-11T06:47:50.769Z,16.05
2023-03-11T06:48:50.784Z,16.05
2023-03-11T06:49:50.752Z,16.07
2023-03-11T06:50:50.826Z,16.07
2023-03-11T06:51:50.732Z,16.07
2023-03-11T06:52:50.724Z,16.07
2023-03-11T06:53:50.719Z,16.07
2023-03-11T06:54:52.084Z,16.07
2023-03-11T06:55:50.687Z,16.07
2023-03-11T06:56:52.309Z,16.08
2023-03-11T06:57:50.669Z,16.07
2023-03-11T06:58:51.288Z,16.07
2023-03-11T06:59:50.646Z,16.07
2023-03-11T07:00:50.671Z,16.07
2023-03-11T07:01:51.651Z,16.07
2023-03-11T07:02:50.610Z,16.07
2023-03-11T07:03:50.647Z,16.07
2023-03-11T07:04:50.590Z,16.07
2023-03-11T07:05:50.605Z,16.07
2023-03-11T07:06:50.593Z,16.07
2023-03-11T07:07:50.586Z,16.07
2023-03-11T07:08:50.577Z,16.07
2023-03-11T07:09:50.570Z,16.07
2023-03-11T07:10:50.530Z,16.07
2023-03-11T07:11:50.540Z,16.07
2023-03-11T07:12:50.507Z,16.08
2023-03-11T07:13:50.496Z,16.07
2023-03-11T07:14:50.488Z,16.08
2023-03-11T07:15:50.486Z,16.07
2023-03-11T07:16:50.563Z,16.08
2023-03-11T07:17:50.454Z,16.07
2023-03-11T07:18:50.441Z,16.07
2023-03-11T07:19:50.435Z,16.08
2023-03-11T07:20:50.425Z,16.08
2023-03-11T07:21:50.412Z,16.07
2023-03-11T07:22:50.481Z,16.08
2023-03-11T07:23:50.390Z,16.07
2023-03-11T07:24:50.379Z,16.08
2023-03-11T07:25:50.368Z,16.07
2023-03-11T07:26:50.360Z,16.07
2023-03-11T07:27:50.365Z,16.08
2023-03-11T07:28:50.362Z,16.08
2023-03-11T07:29:50.324Z,16.08
2023-03-11T07:30:50.319Z,16.07
2023-03-11T07:31:50.375Z,16.07
2023-03-11T07:32:50.402Z,16.08
2023-03-11T07:33:50.283Z,16.07
2023-03-11T07:34:50.291Z,16.08
2023-03-11T07:35:50.293Z,16.08
2023-03-11T07:36:50.258Z,16.08
2023-03-11T07:37:50.342Z,16.08
2023-03-11T07:38:50.273Z,16.08
2023-03-11T07:39:50.218Z,16.08
2023-03-11T07:40:50.208Z,16.08
2023-03-11T07:41:50.200Z,16.08
2023-03-11T07:42:50.186Z,16.08
2023-03-11T07:43:50.210Z,16.07
2023-03-11T07:44:50.165Z,16.08
2023-03-11T07:45:50.180Z,16.07
2023-03-11T07:46:50.217Z,16.08
2023-03-11T07:47:50.131Z,16.08
2023-03-11T07:48:50.122Z,16.09
2023-03-11T07:49:50.116Z,16.08
2023-03-11T07:50:50.100Z,16.08
2023-03-11T07:51:50.104Z,16.08
2023-03-11T07:52:50.163Z,16.08
2023-03-11T07:53:50.071Z,16.08
2023-03-11T07:54:50.084Z,16.08
2023-03-11T07:55:50.052Z,16.08
2023-03-11T07:56:50.072Z,16.08
2023-03-11T07:57:50.030Z,16.08
2023-03-11T07:58:50.033Z,16.07
2023-03-11T07:59:50.005Z,16.09
2023-03-11T08:00:49.990Z,16.08
2023-03-11T08:01:49.982Z,16.09
2023-03-11T08:02:50.100Z,16.09
2023-03-11T08:03:50.138Z,16.08
2023-03-11T08:04:49.959Z,16.08
2023-03-11T08:05:49.944Z,16.09
2023-03-11T08:06:49.947Z,16.08
2023-03-11T08:07:49.941Z,16.09
2023-03-11T08:08:49.905Z,16.08
2023-03-11T08:09:49.902Z,16.08
2023-03-11T08:10:50.002Z,16.08
2023-03-11T08:11:49.942Z,16.07
2023-03-11T08:12:49.905Z,16.08
2023-03-11T08:13:49.883Z,16.08
2023-03-11T08:14:49.849Z,16.08
2023-03-11T08:15:49.885Z,16.08
2023-03-11T08:16:49.822Z,16.09
2023-03-11T08:17:49.815Z,16.08
2023-03-11T08:18:49.931Z,16.09
2023-03-11T08:19:49.788Z,16.09
2023-03-11T08:20:49.785Z,16.09
2023-03-11T08:21:49.799Z,16.09
2023-03-11T08:22:58.040Z,16.09
2023-03-11T08:23:50.746Z,16.09
2023-03-11T08:24:49.738Z,16.11
2023-03-11T08:25:49.727Z,16.12
2023-03-11T08:26:49.769Z,16.14
2023-03-11T08:27:49.709Z,16.12
2023-03-11T08:28:49.698Z,16.14
2023-03-11T08:29:49.684Z,16.14
2023-03-11T08:30:49.700Z,16.14
2023-03-11T08:31:49.664Z,16.14
2023-03-11T08:32:49.721Z,16.14
2023-03-11T08:33:49.714Z,16.15
2023-03-11T08:34:49.627Z,16.15
2023-03-11T08:35:49.685Z,16.15
2023-03-11T08:36:49.607Z,16.15
2023-03-11T08:37:49.603Z,16.15
2023-03-11T08:38:49.700Z,16.17
2023-03-11T08:39:49.582Z,16.20
2023-03-11T08:40:49.566Z,16.21
2023-03-11T08:41:49.573Z,16.21
2023-03-11T08:42:49.566Z,16.20
2023-03-11T08:43:49.545Z,16.23
2023-03-11T08:44:49.549Z,16.21
2023-03-11T08:45:49.512Z,16.21
2023-03-11T08:46:49.532Z,16.21
2023-03-11T08:47:49.516Z,16.21
2023-03-11T08:48:49.480Z,16.21
2023-03-11T08:49:49.469Z,16.21
2023-03-11T08:50:54.272Z,16.21
2023-03-11T08:51:50.530Z,16.23
2023-03-11T08:52:49.459Z,16.21
2023-03-11T08:53:49.428Z,16.23
2023-03-11T08:54:49.420Z,16.23
2023-03-11T08:55:49.406Z,16.24
2023-03-11T08:56:49.413Z,16.24
2023-03-11T08:57:49.386Z,16.25
2023-03-11T08:58:49.402Z,16.24
2023-03-11T08:59:49.361Z,16.25
2023-03-11T09:00:49.382Z,16.25
2023-03-11T09:01:49.338Z,16.25
2023-03-11T09:02:49.406Z,16.27
2023-03-11T09:03:49.317Z,16.25
2023-03-11T09:04:49.312Z,16.27
2023-03-11T09:05:49.396Z,16.27
2023-03-11T09:06:49.305Z,16.25
2023-03-11T09:07:49.277Z,16.27
2023-03-11T09:08:49.280Z,16.25
2023-03-11T09:09:49.261Z,16.25
2023-03-11T09:10:49.244Z,16.27
2023-03-11T09:11:49.271Z,16.25
2023-03-11T09:12:49.221Z,16.27
2023-03-11T09:13:49.212Z,16.25
2023-03-11T09:14:49.231Z,16.27
2023-03-11T09:15:49.272Z,16.27
2023-03-11T09:16:49.180Z,16.27
2023-03-11T09:17:49.182Z,16.25
2023-03-11T09:18:49.216Z,16.27
2023-03-11T09:19:49.152Z,16.27
2023-03-11T09:20:49.138Z,16.27
2023-03-11T09:21:49.127Z,16.27
2023-03-11T09:22:49.118Z,16.28
2023-03-11T09:23:49.144Z,16.28
2023-03-11T09:24:49.093Z,16.28
2023-03-11T09:25:49.125Z,16.30
2023-03-11T09:26:49.087Z,16.31
2023-03-11T09:27:49.064Z,16.31
2023-03-11T09:28:49.432Z,16.30
2023-03-11T09:29:49.043Z,16.33
2023-03-11T09:30:49.094Z,16.31
2023-03-11T09:31:49.111Z,16.31
2023-03-11T09:32:49.070Z,16.33
2023-03-11T09:33:49.000Z,16.33
2023-03-11T09:34:48.990Z,16.33
2023-03-11T09:35:49.017Z,16.34
2023-03-11T09:36:48.989Z,16.33
2023-03-11T09:37:48.961Z,16.34
2023-03-11T09:38:48.972Z,16.33
2023-03-11T09:39:48.940Z,16.34
2023-03-11T09:40:48.924Z,16.33
2023-03-11T09:41:57.963Z,16.33
2023-03-11T09:42:49.904Z,16.33
2023-03-11T09:43:48.898Z,16.33
2023-03-11T09:44:48.886Z,16.31
2023-03-11T09:45:48.872Z,16.34
2023-03-11T09:46:49.052Z,16.33
2023-03-11T09:47:48.854Z,16.33
2023-03-11T09:48:48.840Z,16.33
2023-03-11T09:49:48.832Z,16.31
2023-03-11T09:50:48.817Z,16.31
2023-03-11T09:51:48.836Z,16.33
2023-03-11T09:52:48.803Z,16.31
2023-03-11T09:53:48.784Z,16.31
2023-03-11T09:54:48.774Z,16.31
2023-03-11T09:55:48.763Z,16.31
2023-03-11T09:56:48.756Z,16.31
2023-03-11T09:57:48.762Z,16.31
2023-03-11T09:58:48.739Z,16.31
2023-03-11T09:59:48.726Z,16.30
2023-03-11T10:00:48.711Z,16.30
2023-03-11T10:01:48.782Z,16.30
2023-03-11T10:02:48.878Z,16.30
2023-03-11T10:03:48.699Z,16.30
2023-03-11T10:04:48.677Z,16.27
2023-03-11T10:05:48.655Z,16.28
2023-03-11T10:06:48.645Z,16.28
2023-03-11T10:07:48.653Z,16.30
2023-03-11T10:08:48.635Z,16.28
2023-03-11T10:09:48.623Z,16.30
2023-03-11T10:10:48.602Z,16.31
2023-03-11T10:11:48.617Z,16.31
2023-03-11T10:12:48.596Z,16.33
2023-03-11T10:13:48.570Z,16.33
2023-03-11T10:14:48.585Z,16.33
2023-03-11T10:15:48.576Z,16.33
2023-03-11T10:16:48.635Z,16.35
2023-03-11T10:17:48.550Z,16.34
2023-03-11T10:18:48.582Z,16.35
2023-03-11T10:19:48.707Z,16.35
2023-03-11T10:20:48.497Z,16.34
2023-03-11T10:21:48.486Z,16.35
2023-03-11T10:22:48.474Z,16.34
2023-03-11T10:23:48.672Z,16.35
2023-03-11T10:24:48.454Z,16.33
2023-03-11T10:25:48.469Z,16.33
2023-03-11T10:26:48.438Z,16.31
2023-03-11T10:27:48.420Z,16.33
2023-03-11T10:28:48.412Z,16.31
2023-03-11T10:29:48.401Z,16.31
2023-03-11T10:30:48.419Z,16.31
2023-03-11T10:31:48.413Z,16.30
2023-03-11T10:32:48.427Z,16.30
2023-03-11T10:33:48.356Z,16.31
2023-03-11T10:34:48.370Z,16.33
2023-03-11T10:35:48.375Z,16.31
2023-03-11T10:36:48.324Z,16.33
2023-03-11T10:37:50.089Z,16.31
2023-03-11T10:38:48.312Z,16.34
2023-03-11T10:39:48.310Z,16.34
2023-03-11T10:40:48.310Z,16.33
2023-03-11T10:41:48.269Z,16.34
2023-03-11T10:42:48.258Z,16.35
2023-03-11T10:43:48.251Z,16.34
2023-03-11T10:44:48.237Z,16.35
2023-03-11T10:45:48.282Z,16.35
2023-03-11T10:46:48.239Z,16.34
2023-03-11T10:47:48.210Z,16.35
2023-03-11T10:48:48.194Z,16.35
2023-03-11T10:49:48.193Z,16.35
2023-03-11T10:50:48.318Z,16.35
2023-03-11T10:51:48.312Z,16.38
2023-03-11T10:52:48.153Z,16.35
2023-03-11T10:53:48.166Z,16.35
2023-03-11T10:54:48.131Z,16.34
2023-03-11T10:55:48.124Z,16.35
2023-03-11T10:56:48.286Z,16.34
2023-03-11T10:57:48.105Z,16.34
2023-03-11T10:58:48.093Z,16.34
2023-03-11T10:59:48.075Z,16.35
2023-03-11T11:00:48.182Z,16.35
2023-03-11T11:01:48.101Z,16.38
2023-03-11T11:02:48.046Z,16.38
2023-03-11T11:03:48.133Z,16.35
2023-03-11T11:04:48.029Z,16.38
2023-03-11T11:05:48.014Z,16.38
2023-03-11T11:06:48.068Z,16.38
2023-03-11T11:07:48.016Z,16.38
2023-03-11T11:08:47.986Z,16.35
2023-03-11T11:09:47.989Z,16.38
2023-03-11T11:10:47.965Z,16.38
2023-03-11T11:11:47.949Z,16.39
2023-03-11T11:12:47.944Z,16.39
2023-03-11T11:13:47.928Z,16.38
2023-03-11T11:14:47.941Z,16.38
2023-03-11T11:15:47.932Z,16.38
2023-03-11T11:16:47.942Z,16.35
2023-03-11T11:17:47.889Z,16.34
2023-03-11T11:18:49.382Z,16.35
2023-03-11T11:19:47.866Z,16.38
2023-03-11T11:20:47.932Z,16.35
2023-03-11T11:21:47.844Z,16.34
2023-03-11T11:22:47.881Z,16.34
2023-03-11T11:23:47.883Z,16.34
2023-03-11T11:24:47.861Z,16.33
2023-03-11T11:25:47.804Z,16.34
2023-03-11T11:26:47.810Z,16.33
2023-03-11T11:27:47.782Z,16.30
2023-03-11T11:28:47.789Z,16.31
2023-03-11T11:29:47.759Z,16.30
2023-03-11T11:30:47.806Z,16.28
2023-03-11T11:31:47.740Z,16.28
2023-03-11T11:32:47.758Z,16.28
2023-03-11T11:33:47.720Z,16.27
2023-03-11T11:34:47.705Z,16.25
2023-03-11T11:35:47.817Z,16.25
2023-03-11T11:36:47.705Z,16.25
2023-03-11T11:37:47.691Z,16.25
2023-03-11T11:38:47.705Z,16.25
2023-03-11T11:39:47.651Z,16.24
2023-03-11T11:40:47.639Z,16.24
2023-03-11T11:41:47.650Z,16.25
2023-03-11T11:42:47.621Z,16.25
2023-03-11T11:43:47.609Z,16.25
2023-03-11T11:44:47.635Z,16.25
2023-03-11T11:45:47.670Z,16.27
2023-03-11T11:46:47.577Z,16.27
2023-03-11T11:47:47.562Z,16.27
2023-03-11T11:48:47.552Z,16.27
2023-03-11T11:49:48.114Z,16.28
2023-03-11T11:50:47.537Z,16.28
2023-03-11T11:51:47.519Z,16.30
2023-03-11T11:52:47.516Z,16.30
2023-03-11T11:53:47.542Z,16.31
2023-03-11T11:54:47.517Z,16.33
2023-03-11T11:55:47.478Z,16.33
2023-03-11T11:56:47.468Z,16.33
2023-03-11T11:57:47.454Z,16.33
2023-03-11T11:58:47.452Z,16.33
2023-03-11T11:59:47.456Z,16.33
2023-03-11T12:00:47.494Z,16.31
2023-03-11T12:01:47.418Z,16.33
2023-03-11T12:02:47.401Z,16.33
2023-03-11T12:03:47.417Z,16.33
2023-03-11T12:04:47.404Z,16.33
2023-03-11T12:05:47.387Z,16.35
2023-03-11T12:06:47.359Z,16.34
2023-03-11T12:07:47.502Z,16.35
2023-03-11T12:08:47.336Z,16.34
2023-03-11T12:09:47.342Z,16.34
2023-03-11T12:10:47.484Z,16.34
2023-03-11T12:11:47.309Z,16.35
2023-03-11T12:12:47.300Z,16.35
2023-03-11T12:13:47.307Z,16.34
2023-03-11T12:14:47.304Z,16.34
2023-03-11T12:15:47.319Z,16.34
2023-03-11T12:16:47.253Z,16.33
2023-03-11T12:17:47.240Z,16.31
2023-03-11T12:18:47.229Z,16.33
2023-03-11T12:19:47.221Z,16.31
2023-03-11T12:20:47.427Z,16.30
2023-03-11T12:21:47.201Z,16.30
2023-03-11T12:22:47.188Z,16.30
2023-03-11T12:23:47.176Z,16.30
2023-03-11T12:24:47.170Z,16.28
2023-03-11T12:25:47.157Z,16.30
2023-03-11T12:26:47.230Z,16.28
2023-03-11T12:27:47.136Z,16.30
2023-03-11T12:28:47.124Z,16.30
2023-03-11T12:29:47.112Z,16.31
2023-03-11T12:30:47.114Z,16.31
2023-03-11T12:31:47.115Z,16.31
2023-03-11T12:32:47.094Z,16.33
2023-03-11T12:33:47.070Z,16.33
2023-03-11T12:34:48.888Z,16.33
2023-03-11T12:35:47.125Z,16.34
2023-03-11T12:36:47.044Z,16.33
2023-03-11T12:37:47.033Z,16.33
2023-03-11T12:38:47.021Z,16.34
2023-03-11T12:39:47.027Z,16.38
2023-03-11T12:40:47.210Z,16.38
2023-03-11T12:41:47.003Z,16.38
2023-03-11T12:42:47.008Z,16.38
2023-03-11T12:43:46.968Z,16.38
2023-03-11T12:44:46.962Z,16.39
2023-03-11T12:45:46.974Z,16.39
2023-03-11T12:46:46.990Z,16.39
2023-03-11T12:47:46.924Z,16.41
2023-03-11T12:48:46.910Z,16.42
2023-03-11T12:49:46.916Z,16.43
2023-03-11T12:50:46.890Z,16.42
2023-03-11T12:51:46.982Z,16.43
2023-03-11T12:52:46.874Z,16.43